Time,TemperatureF,DewpointF,PressureIn,WindDirection,WindDirectionDegrees,WindSpeedMPH,WindSpeedGustMPH,Humidity,HourlyPrecipIn,Conditions,Clouds,dailyrainin,SoftwareType,DateUTC
2013-08-01 00:00:00,58.2,54.4,30.00,WNW,295,0.0,0.0,87,0.00,,CLR,0.02,VWS V14.01,2013-08-01 05:00:00,
2013-08-01 00:10:00,57.9,54.1,30.00,WNW,295,0.0,0.0,87,0.00,,CLR,0.00,VWS V14.01,2013-08-01 05:10:00,
2013-08-01 00:20:00,57.2,53.4,30.01,WNW,295,0.0,0.0,87,0.00,,CLR,0.00,VWS V14.01,2013-08-01 05:20:00,
2013-08-01 00:30:00,56.0,52.8,30.01,WNW,295,0.0,0.0,89,0.00,,CLR,0.00,VWS V14.01,2013-08-01 05:30:00,
2013-08-01 00:35:00,55.7,53.1,30.01,WNW,295,0.0,0.0,91,0.00,,CLR,0.00,VWS V14.01,2013-08-01 05:35:00,
2013-08-01 00:45:00,55.7,53.4,30.01,WNW,295,0.0,0.0,92,0.00,,CLR,0.00,VWS V14.01,2013-08-01 05:45:00,
2013-08-01 00:55:00,55.4,53.1,30.01,WNW,295,0.0,0.0,92,0.00,,CLR,0.00,VWS V14.01,2013-08-01 05:55:00,
2013-08-01 01:00:00,55.1,52.8,30.00,WNW,295,0.0,0.0,92,0.00,,CLR,0.00,VWS V14.01,2013-08-01 06:00:00,
2013-08-01 01:10:00,54.8,52.5,30.01,WNW,295,0.0,0.0,92,0.00,,CLR,0.00,VWS V14.01,2013-08-01 06:10:00,
2013-08-01 01:15:00,54.8,52.5,30.01,WNW,295,0.0,0.0,92,0.00,,CLR,0.00,VWS V14.01,2013-08-01 06:15:00,
2013-08-01 01:25:00,54.6,52.3,30.00,WNW,295,0.0,0.0,92,0.00,,CLR,0.00,VWS V14.01,2013-08-01 06:25:00,
2013-08-01 01:30:00,54.5,52.2,30.01,WNW,295,0.0,0.0,92,0.00,,CLR,0.00,VWS V14.01,2013-08-01 06:30:00,
2013-08-01 01:40:00,54.8,52.8,30.00,WNW,295,0.0,0.0,93,0.00,,CLR,0.00,VWS V14.01,2013-08-01 06:40:00,
2013-08-01 01:45:00,55.1,52.8,30.00,WNW,295,0.0,0.0,92,0.00,,CLR,0.00,VWS V14.01,2013-08-01 06:45:00,
2013-08-01 01:55:00,55.3,52.7,30.00,WNW,295,0.0,0.0,91,0.00,,CLR,0.00,VWS V14.01,2013-08-01 06:55:00,
2013-08-01 02:00:00,55.3,52.7,30.00,WNW,295,0.0,0.0,91,0.00,,CLR,0.00,VWS V14.01,2013-08-01 07:00:00,
2013-08-01 02:10:00,55.2,52.6,30.00,WNW,295,0.0,1.0,91,0.00,,SCT080,0.00,VWS V14.01,2013-08-01 07:10:00,
2013-08-01 02:15:00,55.0,52.4,30.00,WNW,295,0.0,0.0,91,0.00,,SCT080,0.00,VWS V14.01,2013-08-01 07:15:00,
2013-08-01 02:25:00,54.8,52.5,30.00,SSW,202,1.0,4.2,92,0.00,,SCT080,0.00,VWS V14.01,2013-08-01 07:25:00,
2013-08-01 02:30:00,54.7,52.4,30.00,SSW,213,0.0,4.2,92,0.00,,SCT080,0.00,VWS V14.01,2013-08-01 07:30:00,
2013-08-01 02:35:00,54.6,52.3,30.00,SSW,213,1.0,1.0,92,0.00,,SCT080,0.00,VWS V14.01,2013-08-01 07:35:00,
2013-08-01 02:40:00,54.5,52.5,30.00,SSW,213,0.0,2.1,93,0.00,,SCT080,0.00,VWS V14.01,2013-08-01 07:40:00,
2013-08-01 02:45:00,54.5,52.5,30.00,SSW,213,0.0,2.1,93,0.00,,BKN080,0.00,VWS V14.01,2013-08-01 07:45:00,
2013-08-01 03:00:00,54.3,52.3,30.00,SSW,213,0.0,1.0,93,0.00,,BKN080,0.00,VWS V14.01,2013-08-01 08:00:00,
2013-08-01 03:10:00,54.2,52.2,30.00,SSW,213,0.0,1.0,93,0.00,,BKN080,0.00,VWS V14.01,2013-08-01 08:10:00,
2013-08-01 03:15:00,54.2,52.2,30.00,SSW,213,1.0,2.1,93,0.00,,BKN080,0.00,VWS V14.01,2013-08-01 08:15:00,
2013-08-01 03:20:00,54.2,52.2,30.00,SSW,213,1.0,2.1,93,0.00,,BKN080,0.00,VWS V14.01,2013-08-01 08:20:00,
2013-08-01 03:25:00,54.5,52.5,30.00,SSW,213,0.0,3.1,93,0.00,,SCT080,0.00,VWS V14.01,2013-08-01 08:25:00,
2013-08-01 03:35:00,54.7,52.7,30.00,SSW,213,1.0,2.1,93,0.00,,SCT080,0.00,VWS V14.01,2013-08-01 08:35:00,
2013-08-01 03:40:00,54.8,52.8,30.00,SSW,213,1.0,2.1,93,0.00,,BKN080,0.00,VWS V14.01,2013-08-01 08:40:00,
2013-08-01 03:45:00,54.8,52.8,30.00,SSW,213,1.0,2.1,93,0.00,,BKN080,0.00,VWS V14.01,2013-08-01 08:45:00,
2013-08-01 04:00:00,55.0,52.7,30.00,SSW,213,0.0,0.0,92,0.00,,BKN080,0.00,VWS V14.01,2013-08-01 09:00:00,
2013-08-01 04:05:00,54.9,52.6,30.00,SSW,213,0.0,0.0,92,0.00,,SCT080,0.00,VWS V14.01,2013-08-01 09:05:00,
2013-08-01 04:30:00,54.0,51.7,29.99,SSW,213,0.0,0.0,92,0.00,,CLR,0.00,VWS V14.01,2013-08-01 09:30:00,
2013-08-01 04:45:00,54.1,52.1,30.00,SSW,213,0.0,0.0,93,0.00,,CLR,0.00,VWS V14.01,2013-08-01 09:45:00,
2013-08-01 04:55:00,54.0,52.0,29.99,SSW,213,0.0,0.0,93,0.00,,CLR,0.00,VWS V14.01,2013-08-01 09:55:00,
2013-08-01 05:15:00,53.8,51.8,30.00,SSW,213,0.0,0.0,93,0.00,,CLR,0.00,VWS V14.01,2013-08-01 10:15:00,
2013-08-01 05:20:00,53.6,51.6,30.00,SW,220,0.0,2.1,93,0.00,,CLR,0.00,VWS V14.01,2013-08-01 10:20:00,
2013-08-01 05:40:00,54.3,52.3,29.99,SW,232,0.0,2.1,93,0.00,,CLR,0.00,VWS V14.01,2013-08-01 10:40:00,
2013-08-01 05:45:00,54.4,52.4,29.99,SW,232,0.0,0.0,93,0.00,,CLR,0.00,VWS V14.01,2013-08-01 10:45:00,
2013-08-01 05:50:00,54.4,52.4,29.99,SW,232,0.0,0.0,93,0.00,,CLR,0.00,VWS V14.01,2013-08-01 10:50:00,
2013-08-01 06:05:00,54.5,52.5,29.99,SW,232,0.0,0.0,93,0.00,,CLR,0.00,VWS V14.01,2013-08-01 11:05:00,
2013-08-01 06:10:00,54.5,52.5,29.99,SW,232,0.0,0.0,93,0.00,,CLR,0.00,VWS V14.01,2013-08-01 11:10:00,
2013-08-01 06:15:00,54.4,52.4,29.99,SW,232,0.0,0.0,93,0.00,,CLR,0.00,VWS V14.01,2013-08-01 11:15:00,
2013-08-01 06:20:00,54.2,51.9,29.99,SW,232,0.0,0.0,92,0.00,,CLR,0.00,VWS V14.01,2013-08-01 11:20:00,
2013-08-01 06:30:00,54.2,52.2,29.99,SW,232,0.0,0.0,93,0.00,,CLR,0.00,VWS V14.01,2013-08-01 11:30:00,
2013-08-01 06:45:00,54.2,52.2,29.99,SW,232,0.0,0.0,93,0.00,,,0.00,VWS V14.01,2013-08-01 11:45:00,
2013-08-01 06:50:00,54.5,52.5,29.99,SW,232,0.0,0.0,93,0.00,,,0.00,VWS V14.01,2013-08-01 11:50:00,
2013-08-01 06:55:00,54.8,53.1,29.99,SW,232,0.0,0.0,94,0.00,,,0.00,VWS V14.01,2013-08-01 11:55:00,
2013-08-01 07:00:00,55.3,53.6,29.99,SW,232,0.0,0.0,94,0.00,,,0.00,VWS V14.01,2013-08-01 12:00:00,
2013-08-01 07:05:00,55.8,54.1,29.99,SW,232,0.0,1.0,94,0.00,,BKN070,0.00,VWS V14.01,2013-08-01 12:05:00,
2013-08-01 07:10:00,56.5,54.8,29.99,SW,232,0.0,0.0,94,0.00,,BKN070,0.00,VWS V14.01,2013-08-01 12:10:00,
2013-08-01 07:30:00,58.7,56.4,29.99,SW,232,0.0,0.0,92,0.00,,BKN050,0.00,VWS V14.01,2013-08-01 12:30:00,
2013-08-01 07:35:00,59.1,56.8,29.99,SW,232,0.0,0.0,92,0.00,,BKN050,0.00,VWS V14.01,2013-08-01 12:35:00,
2013-08-01 07:45:00,59.8,57.5,29.99,SW,232,0.0,0.0,92,0.00,,SCT048,0.00,VWS V14.01,2013-08-01 12:45:00,
2013-08-01 07:50:00,60.1,57.2,29.99,West,261,0.0,4.2,90,0.00,,SCT048,0.00,VWS V14.01,2013-08-01 12:50:00,
2013-08-01 07:55:00,60.6,57.7,29.99,West,261,0.0,0.0,90,0.00,,SCT048,0.00,VWS V14.01,2013-08-01 12:55:00,
2013-08-01 08:00:00,60.9,58.0,29.99,West,261,0.0,0.0,90,0.00,,SCT048,0.00,VWS V14.01,2013-08-01 13:00:00,
2013-08-01 08:10:00,61.8,58.8,29.99,West,261,0.0,0.0,90,0.00,,SCT085,0.00,VWS V14.01,2013-08-01 13:10:00,
2013-08-01 08:20:00,62.7,58.8,29.99,West,261,0.0,0.0,87,0.00,,SCT085,0.00,VWS V14.01,2013-08-01 13:20:00,
2013-08-01 08:25:00,63.2,59.3,29.99,West,261,0.0,0.0,87,0.00,,SCT085,0.00,VWS V14.01,2013-08-01 13:25:00,
2013-08-01 08:35:00,64.1,59.2,29.99,SW,219,3.0,4.2,84,0.00,,SCT085,0.00,VWS V14.01,2013-08-01 13:35:00,
2013-08-01 08:45:00,65.1,59.5,29.98,SSW,213,1.0,4.2,82,0.00,,CLR,0.00,VWS V14.01,2013-08-01 13:45:00,
2013-08-01 08:55:00,66.0,59.3,29.98,SW,229,2.0,4.2,79,0.00,,CLR,0.00,VWS V14.01,2013-08-01 13:55:00,
2013-08-01 09:00:00,66.3,60.0,29.99,SW,229,0.0,3.1,80,0.00,,CLR,0.00,VWS V14.01,2013-08-01 14:00:00,
2013-08-01 09:15:00,67.2,60.5,29.98,SSW,206,0.0,3.1,79,0.00,,CLR,0.00,VWS V14.01,2013-08-01 14:15:00,
2013-08-01 09:25:00,68.1,60.6,29.99,SSW,199,3.0,4.2,77,0.00,,CLR,0.00,VWS V14.01,2013-08-01 14:25:00,
2013-08-01 09:30:00,68.5,59.9,29.98,SW,225,3.0,6.3,74,0.00,,CLR,0.00,VWS V14.01,2013-08-01 14:30:00,
2013-08-01 09:50:00,70.0,59.4,29.98,South,178,5.0,7.3,69,0.00,,CLR,0.00,VWS V14.01,2013-08-01 14:50:00,
2013-08-01 10:00:00,70.6,60.3,29.98,SSW,194,5.0,7.3,70,0.00,,CLR,0.00,VWS V14.01,2013-08-01 15:00:00,
2013-08-01 10:10:00,71.2,59.7,29.98,SSW,198,2.0,6.3,67,0.00,,CLR,0.00,VWS V14.01,2013-08-01 15:10:00,
2013-08-01 10:20:00,71.7,60.6,29.98,SSW,192,3.0,4.2,68,0.00,,CLR,0.00,VWS V14.01,2013-08-01 15:20:00,
2013-08-01 10:25:00,71.8,59.8,29.98,SSW,199,1.0,5.2,66,0.00,,CLR,0.00,VWS V14.01,2013-08-01 15:25:00,
2013-08-01 10:30:00,72.2,58.5,29.97,SSW,204,3.0,6.3,62,0.00,,CLR,0.00,VWS V14.01,2013-08-01 15:30:00,
2013-08-01 10:35:00,72.5,59.2,29.97,SSW,203,1.0,5.2,63,0.00,,CLR,0.00,VWS V14.01,2013-08-01 15:35:00,
2013-08-01 10:45:00,73.9,61.0,29.97,SSW,196,0.0,5.2,64,0.00,,CLR,0.00,VWS V14.01,2013-08-01 15:45:00,
2013-08-01 11:10:00,75.2,56.9,29.96,South,169,0.0,10.5,53,0.00,,CLR,0.00,VWS V14.01,2013-08-01 16:10:00,
2013-08-01 11:15:00,75.5,57.7,29.96,South,186,2.0,6.3,54,0.00,,CLR,0.00,VWS V14.01,2013-08-01 16:15:00,
2013-08-01 11:30:00,76.0,58.2,29.96,South,180,2.0,7.3,54,0.00,,CLR,0.00,VWS V14.01,2013-08-01 16:30:00,
2013-08-01 11:50:00,76.5,59.7,29.95,South,181,4.0,8.4,56,0.00,,CLR,0.00,VWS V14.01,2013-08-01 16:50:00,
2013-08-01 11:55:00,76.4,59.6,29.95,SSE,165,2.0,6.3,56,0.00,,CLR,0.00,VWS V14.01,2013-08-01 16:55:00,
2013-08-01 12:10:00,76.5,60.6,29.94,SSE,150,9.0,9.4,58,0.00,,CLR,0.00,VWS V14.01,2013-08-01 17:10:00,
2013-08-01 12:20:00,76.8,61.4,29.94,SSE,168,5.0,8.4,59,0.00,,CLR,0.00,VWS V14.01,2013-08-01 17:20:00,
2013-08-01 12:25:00,77.2,61.3,29.94,SSW,207,2.0,7.3,58,0.00,,CLR,0.00,VWS V14.01,2013-08-01 17:25:00,
2013-08-01 12:30:00,77.5,60.6,29.94,SSW,194,4.0,5.2,56,0.00,,CLR,0.00,VWS V14.01,2013-08-01 17:30:00,
2013-08-01 12:35:00,77.4,59.5,29.94,South,183,2.0,7.3,54,0.00,,CLR,0.00,VWS V14.01,2013-08-01 17:35:00,
2013-08-01 12:40:00,77.5,62.1,29.93,South,173,6.0,7.3,59,0.00,,CLR,0.00,VWS V14.01,2013-08-01 17:40:00,
2013-08-01 12:45:00,77.4,60.0,29.93,SW,216,0.0,7.3,55,0.00,,CLR,0.00,VWS V14.01,2013-08-01 17:45:00,
2013-08-01 12:50:00,77.6,61.7,29.93,SW,219,4.0,10.5,58,0.00,,CLR,0.00,VWS V14.01,2013-08-01 17:50:00,
2013-08-01 12:55:00,77.6,62.6,29.93,SW,216,5.0,8.4,60,0.00,,CLR,0.00,VWS V14.01,2013-08-01 17:55:00,
2013-08-01 13:10:00,77.7,62.2,29.93,SW,215,0.0,6.3,59,0.00,,CLR,0.00,VWS V14.01,2013-08-01 18:10:00,
2013-08-01 13:45:00,78.4,63.4,29.91,SW,232,2.0,7.3,60,0.00,,CLR,0.00,VWS V14.01,2013-08-01 18:45:00,
2013-08-01 14:45:00,79.6,63.0,29.89,WSW,253,3.0,8.4,57,0.00,,CLR,0.00,VWS V14.01,2013-08-01 19:45:00,
2013-08-01 14:55:00,79.6,64.5,29.89,WSW,254,3.0,9.4,60,0.00,,CLR,0.00,VWS V14.01,2013-08-01 19:55:00,
2013-08-01 15:05:00,79.8,64.2,29.88,NNW,347,1.0,4.2,59,0.00,,SCT042,0.00,VWS V14.01,2013-08-01 20:05:00,
2013-08-01 15:10:00,80.4,61.7,29.88,WNW,292,2.0,5.2,53,0.00,,SCT042,0.00,VWS V14.01,2013-08-01 20:10:00,
2013-08-01 15:20:00,80.7,64.1,29.88,WNW,296,0.0,7.3,57,0.00,,SCT042,0.00,VWS V14.01,2013-08-01 20:20:00,
2013-08-01 15:25:00,81.4,64.7,29.88,NNW,329,1.0,2.1,57,0.00,,CLR,0.00,VWS V14.01,2013-08-01 20:25:00,
2013-08-01 15:30:00,81.8,65.6,29.88,WNW,292,7.0,10.5,58,0.00,,CLR,0.00,VWS V14.01,2013-08-01 20:30:00,
2013-08-01 15:35:00,82.2,61.7,29.87,NW,304,4.0,7.3,50,0.00,,CLR,0.00,VWS V14.01,2013-08-01 20:35:00,
2013-08-01 15:40:00,81.7,64.0,29.87,WSW,246,2.0,8.4,55,0.00,,CLR,0.00,VWS V14.01,2013-08-01 20:40:00,
2013-08-01 15:45:00,81.5,63.3,29.87,West,281,0.0,6.3,54,0.00,,CLR,0.00,VWS V14.01,2013-08-01 20:45:00,
2013-08-01 15:55:00,81.9,63.6,29.86,WNW,296,0.0,2.1,54,0.00,,CLR,0.00,VWS V14.01,2013-08-01 20:55:00,
2013-08-01 16:05:00,81.4,64.7,29.86,WNW,293,0.0,2.1,57,0.00,,CLR,0.00,VWS V14.01,2013-08-01 21:05:00,
2013-08-01 16:10:00,81.2,63.0,29.86,NNW,327,0.0,3.1,54,0.00,,CLR,0.00,VWS V14.01,2013-08-01 21:10:00,
2013-08-01 16:20:00,82.0,62.7,29.87,WNW,288,1.0,5.2,52,0.00,,CLR,0.00,VWS V14.01,2013-08-01 21:20:00,
2013-08-01 16:25:00,81.4,62.6,29.87,West,265,0.0,4.2,53,0.00,,CLR,0.00,VWS V14.01,2013-08-01 21:25:00,
2013-08-01 16:30:00,81.1,61.8,29.86,WSW,242,0.0,3.1,52,0.00,,CLR,0.00,VWS V14.01,2013-08-01 21:30:00,
2013-08-01 16:35:00,81.3,63.6,29.86,WNW,297,0.0,4.2,55,0.00,,CLR,0.00,VWS V14.01,2013-08-01 21:35:00,
2013-08-01 16:40:00,81.9,62.0,29.86,NW,305,0.0,2.1,51,0.00,,CLR,0.00,VWS V14.01,2013-08-01 21:40:00,
2013-08-01 16:45:00,82.3,60.7,29.86,West,275,0.0,4.2,48,0.00,,CLR,0.00,VWS V14.01,2013-08-01 21:45:00,
2013-08-01 17:00:00,81.9,62.6,29.86,WSW,244,4.0,9.4,52,0.00,,CLR,0.00,VWS V14.01,2013-08-01 22:00:00,
2013-08-01 17:05:00,81.6,62.8,29.86,WNW,292,0.0,8.4,53,0.00,,CLR,0.00,VWS V14.01,2013-08-01 22:05:00,
2013-08-01 17:15:00,81.3,63.6,29.85,West,280,0.0,2.1,55,0.00,,CLR,0.00,VWS V14.01,2013-08-01 22:15:00,
2013-08-01 17:20:00,81.7,64.5,29.85,NW,315,0.0,2.1,56,0.00,,CLR,0.00,VWS V14.01,2013-08-01 22:20:00,
2013-08-01 17:25:00,81.8,61.9,29.85,NW,309,0.0,5.2,51,0.00,,CLR,0.00,VWS V14.01,2013-08-01 22:25:00,
2013-08-01 17:35:00,81.8,62.5,29.85,WSW,247,0.0,6.3,52,0.00,,CLR,0.00,VWS V14.01,2013-08-01 22:35:00,
2013-08-01 17:45:00,82.2,63.4,29.85,WNW,299,8.0,8.4,53,0.00,,CLR,0.00,VWS V14.01,2013-08-01 22:45:00,
2013-08-01 17:50:00,82.1,62.2,29.85,WSW,242,1.0,8.4,51,0.00,,CLR,0.00,VWS V14.01,2013-08-01 22:50:00,
2013-08-01 17:55:00,82.0,62.7,29.85,West,267,0.0,4.2,52,0.00,,CLR,0.00,VWS V14.01,2013-08-01 22:55:00,
2013-08-01 18:05:00,81.8,61.9,29.85,West,276,0.0,4.2,51,0.00,,CLR,0.00,VWS V14.01,2013-08-01 23:05:00,
2013-08-01 18:15:00,81.2,61.4,29.85,SW,235,1.0,4.2,51,0.00,,CLR,0.00,VWS V14.01,2013-08-01 23:15:00,
2013-08-01 18:20:00,81.1,62.9,29.85,West,275,0.0,6.3,54,0.00,,CLR,0.00,VWS V14.01,2013-08-01 23:20:00,
2013-08-01 18:25:00,81.0,61.7,29.85,NW,315,0.0,3.1,52,0.00,,CLR,0.00,VWS V14.01,2013-08-01 23:25:00,
2013-08-01 18:30:00,80.9,62.7,29.85,West,281,0.0,4.2,54,0.00,,CLR,0.00,VWS V14.01,2013-08-01 23:30:00,
2013-08-01 18:35:00,81.1,61.8,29.84,West,278,0.0,3.1,52,0.00,,CLR,0.00,VWS V14.01,2013-08-01 23:35:00,
2013-08-01 18:45:00,81.2,61.4,29.84,South,178,1.0,2.1,51,0.00,,CLR,0.00,VWS V14.01,2013-08-01 23:45:00,
2013-08-01 19:00:00,81.3,61.5,29.84,WNW,287,0.0,0.0,51,0.00,,CLR,0.00,VWS V14.01,2013-08-02 00:00:00,
2013-08-01 19:10:00,81.5,62.2,29.84,WNW,287,0.0,0.0,52,0.00,,CLR,0.00,VWS V14.01,2013-08-02 00:10:00,
2013-08-01 19:15:00,81.7,62.4,29.84,WNW,291,0.0,0.0,52,0.00,,CLR,0.00,VWS V14.01,2013-08-02 00:15:00,
2013-08-01 19:20:00,81.6,62.3,29.84,North,355,0.0,1.0,52,0.00,,CLR,0.00,VWS V14.01,2013-08-02 00:20:00,
2013-08-01 19:25:00,81.5,62.7,29.84,North,355,0.0,0.0,53,0.00,,SCT100,0.00,VWS V14.01,2013-08-02 00:25:00,
2013-08-01 19:30:00,81.3,62.5,29.84,NNW,348,0.0,0.0,53,0.00,,SCT100,0.00,VWS V14.01,2013-08-02 00:30:00,
2013-08-01 19:35:00,81.0,62.3,29.83,NNW,348,0.0,0.0,53,0.00,,SCT100,0.00,VWS V14.01,2013-08-02 00:35:00,
2013-08-01 19:40:00,80.4,61.7,29.84,NNW,348,0.0,0.0,53,0.00,,SCT100,0.00,VWS V14.01,2013-08-02 00:40:00,
2013-08-01 19:45:00,79.4,62.3,29.84,NNW,348,0.0,0.0,56,0.00,,SCT100,0.00,VWS V14.01,2013-08-02 00:45:00,
2013-08-01 19:55:00,78.0,63.0,29.84,NNW,348,0.0,0.0,60,0.00,,SCT100,0.00,VWS V14.01,2013-08-02 00:55:00,
2013-08-01 20:05:00,77.3,64.6,29.83,NNW,348,0.0,0.0,65,0.00,,SCT100,0.00,VWS V14.01,2013-08-02 01:05:00,
2013-08-01 20:35:00,73.0,62.2,29.83,NNW,348,0.0,0.0,69,0.00,,CLR,0.00,VWS V14.01,2013-08-02 01:35:00,
2013-08-01 20:40:00,72.2,61.9,29.83,NNW,348,0.0,0.0,70,0.00,,CLR,0.00,VWS V14.01,2013-08-02 01:40:00,
2013-08-01 20:45:00,71.3,61.4,29.83,NNW,348,0.0,0.0,71,0.00,,CLR,0.00,VWS V14.01,2013-08-02 01:45:00,
2013-08-01 20:50:00,70.4,61.3,29.83,NNW,348,0.0,0.0,73,0.00,,CLR,0.00,VWS V14.01,2013-08-02 01:50:00,
2013-08-01 21:05:00,67.3,60.6,29.83,NNW,348,0.0,0.0,79,0.00,,CLR,0.00,VWS V14.01,2013-08-02 02:05:00,
2013-08-01 21:10:00,66.8,60.4,29.83,NNW,348,0.0,0.0,80,0.00,,CLR,0.00,VWS V14.01,2013-08-02 02:10:00,
2013-08-01 21:15:00,66.5,60.5,29.83,NNW,348,0.0,0.0,81,0.00,,CLR,0.00,VWS V14.01,2013-08-02 02:15:00,
2013-08-01 21:25:00,65.7,60.1,29.83,NNW,348,0.0,0.0,82,0.00,,CLR,0.00,VWS V14.01,2013-08-02 02:25:00,
2013-08-01 21:30:00,65.0,59.7,29.84,NNW,348,0.0,0.0,83,0.00,,CLR,0.00,VWS V14.01,2013-08-02 02:30:00,
2013-08-01 21:35:00,64.5,59.6,29.84,NNW,348,0.0,0.0,84,0.00,,CLR,0.00,VWS V14.01,2013-08-02 02:35:00,
2013-08-01 21:45:00,63.5,59.2,29.84,NNW,348,0.0,0.0,86,0.00,,CLR,0.00,VWS V14.01,2013-08-02 02:45:00,
2013-08-01 21:55:00,62.7,58.8,29.84,NNW,348,0.0,0.0,87,0.00,,CLR,0.00,VWS V14.01,2013-08-02 02:55:00,
2013-08-01 22:00:00,62.4,58.8,29.85,NNW,348,0.0,0.0,88,0.00,,CLR,0.00,VWS V14.01,2013-08-02 03:00:00,
2013-08-01 22:20:00,61.7,58.1,29.85,NNW,348,0.0,0.0,88,0.00,,CLR,0.00,VWS V14.01,2013-08-02 03:20:00,
2013-08-01 22:25:00,61.7,58.4,29.85,NNW,348,0.0,0.0,89,0.00,,CLR,0.00,VWS V14.01,2013-08-02 03:25:00,
2013-08-01 22:35:00,61.9,58.3,29.85,NNW,348,0.0,0.0,88,0.00,,CLR,0.00,VWS V14.01,2013-08-02 03:35:00,
2013-08-01 22:40:00,61.9,58.3,29.85,NNW,348,0.0,0.0,88,0.00,,CLR,0.00,VWS V14.01,2013-08-02 03:40:00,
2013-08-01 22:50:00,61.5,57.9,29.86,NNW,348,0.0,0.0,88,0.00,,CLR,0.00,VWS V14.01,2013-08-02 03:50:00,
2013-08-01 22:55:00,61.4,57.8,29.86,NNW,348,0.0,0.0,88,0.00,,CLR,0.00,VWS V14.01,2013-08-02 03:55:00,
2013-08-01 23:05:00,60.8,57.2,29.86,West,278,0.0,0.0,88,0.00,,SCT100,0.00,VWS V14.01,2013-08-02 04:05:00,
2013-08-01 23:10:00,60.5,56.9,29.86,West,278,0.0,0.0,88,0.00,,SCT100,0.00,VWS V14.01,2013-08-02 04:10:00,
2013-08-01 23:15:00,60.5,57.2,29.85,West,278,0.0,0.0,89,0.00,,SCT100,0.00,VWS V14.01,2013-08-02 04:15:00,
2013-08-01 23:25:00,60.5,56.9,29.85,West,278,0.0,0.0,88,0.00,,BKN100,0.00,VWS V14.01,2013-08-02 04:25:00,
2013-08-01 23:30:00,60.4,56.8,29.85,West,278,0.0,0.0,88,0.00,,BKN100,0.00,VWS V14.01,2013-08-02 04:30:00,
2013-08-01 23:35:00,60.2,56.6,29.85,West,278,0.0,0.0,88,0.00,,BKN100,0.00,VWS V14.01,2013-08-02 04:35:00,
2013-08-01 23:45:00,59.9,56.7,29.84,West,278,0.0,0.0,89,0.00,,SCT100,0.00,VWS V14.01,2013-08-02 04:45:00,
2013-08-01 23:50:00,59.7,56.5,29.84,West,278,0.0,0.0,89,0.00,,SCT100,0.00,VWS V14.01,2013-08-02 04:50:00,